sensor_id;sensor_type;location;lat;lon;timestamp;temperature;humidity
9519;DHT22;4797;50.220;8.782;2022-10-22T00:24:05;14.80;99.80
9519;DHT22;4797;50.220;8.782;2022-10-22T00:33:58;14.50;99.80
9519;DHT22;4797;50.220;8.782;2022-10-22T00:36:26;14.50;99.80
9519;DHT22;4797;50.220;8.782;2022-10-22T00:43:55;14.50;99.80
9519;DHT22;4797;50.220;8.782;2022-10-22T00:48:52;14.60;99.80
9519;DHT22;4797;50.220;8.782;2022-10-22T00:51:26;14.60;99.80
9519;DHT22;4797;50.220;8.782;2022-10-22T00:53:57;14.60;99.80
9519;DHT22;4797;50.220;8.782;2022-10-22T00:56:26;14.60;99.80
9519;DHT22;4797;50.220;8.782;2022-10-22T00:58:56;14.60;99.80
9519;DHT22;4797;50.220;8.782;2022-10-22T01:01:26;14.60;99.80
9519;DHT22;4797;50.220;8.782;2022-10-22T01:03:54;14.60;99.80
9519;DHT22;4797;50.220;8.782;2022-10-22T01:06:26;14.60;99.80
9519;DHT22;4797;50.220;8.782;2022-10-22T01:09:07;14.50;99.80
9519;DHT22;4797;50.220;8.782;2022-10-22T01:11:45;14.50;99.80
9519;DHT22;4797;50.220;8.782;2022-10-22T01:14:21;14.50;99.80
9519;DHT22;4797;50.220;8.782;2022-10-22T01:16:57;14.60;99.80
9519;DHT22;4797;50.220;8.782;2022-10-22T01:19:38;14.60;99.80
9519;DHT22;4797;50.220;8.782;2022-10-22T01:22:14;14.60;99.80
9519;DHT22;4797;50.220;8.782;2022-10-22T01:24:55;14.60;99.80
9519;DHT22;4797;50.220;8.782;2022-10-22T01:27:31;14.60;99.80
9519;DHT22;4797;50.220;8.782;2022-10-22T01:30:04;14.60;99.80
9519;DHT22;4797;50.220;8.782;2022-10-22T01:32:37;14.60;99.80
9519;DHT22;4797;50.220;8.782;2022-10-22T01:35:08;14.60;99.80
9519;DHT22;4797;50.220;8.782;2022-10-22T01:37:43;14.70;99.80
9519;DHT22;4797;50.220;8.782;2022-10-22T01:40:14;14.70;99.80
9519;DHT22;4797;50.220;8.782;2022-10-22T01:42:53;14.70;99.80
9519;DHT22;4797;50.220;8.782;2022-10-22T01:45:23;14.60;99.80
9519;DHT22;4797;50.220;8.782;2022-10-22T01:47:57;14.70;99.80
9519;DHT22;4797;50.220;8.782;2022-10-22T01:50:43;14.70;99.80
9519;DHT22;4797;50.220;8.782;2022-10-22T01:53:20;14.70;99.80
9519;DHT22;4797;50.220;8.782;2022-10-22T01:55:59;14.70;99.80
9519;DHT22;4797;50.220;8.782;2022-10-22T01:58:38;14.60;99.80
9519;DHT22;4797;50.220;8.782;2022-10-22T02:01:16;14.70;99.80
9519;DHT22;4797;50.220;8.782;2022-10-22T02:03:50;14.70;99.80
9519;DHT22;4797;50.220;8.782;2022-10-22T02:06:21;14.70;99.80
9519;DHT22;4797;50.220;8.782;2022-10-22T02:08:51;14.70;99.80
9519;DHT22;4797;50.220;8.782;2022-10-22T02:11:21;14.80;99.80
9519;DHT22;4797;50.220;8.782;2022-10-22T02:13:51;14.80;99.80
9519;DHT22;4797;50.220;8.782;2022-10-22T02:16:27;14.80;99.80
9519;DHT22;4797;50.220;8.782;2022-10-22T02:18:57;14.80;99.80
9519;DHT22;4797;50.220;8.782;2022-10-22T02:21:26;14.80;99.80
9519;DHT22;4797;50.220;8.782;2022-10-22T02:23:54;14.80;99.80
9519;DHT22;4797;50.220;8.782;2022-10-22T02:26:26;14.80;99.80
9519;DHT22;4797;50.220;8.782;2022-10-22T02:29:01;14.80;99.80
9519;DHT22;4797;50.220;8.782;2022-10-22T02:31:34;14.80;99.80
9519;DHT22;4797;50.220;8.782;2022-10-22T02:34:07;14.80;99.80
9519;DHT22;4797;50.220;8.782;2022-10-22T02:36:37;14.80;99.80
9519;DHT22;4797;50.220;8.782;2022-10-22T02:39:07;14.80;99.80
9519;DHT22;4797;50.220;8.782;2022-10-22T02:41:36;14.80;99.80
9519;DHT22;4797;50.220;8.782;2022-10-22T02:44:07;14.80;99.80
9519;DHT22;4797;50.220;8.782;2022-10-22T02:46:37;14.80;99.80
9519;DHT22;4797;50.220;8.782;2022-10-22T02:49:06;14.90;99.80
9519;DHT22;4797;50.220;8.782;2022-10-22T02:54:02;14.90;99.80
9519;DHT22;4797;50.220;8.782;2022-10-22T02:56:30;14.80;99.80
9519;DHT22;4797;50.220;8.782;2022-10-22T03:03:56;14.90;99.80
9519;DHT22;4797;50.220;8.782;2022-10-22T03:21:20;14.80;99.80
9519;DHT22;4797;50.220;8.782;2022-10-22T03:23:52;14.80;99.80
9519;DHT22;4797;50.220;8.782;2022-10-22T03:26:21;14.80;99.80
9519;DHT22;4797;50.220;8.782;2022-10-22T03:28:49;14.80;99.80
9519;DHT22;4797;50.220;8.782;2022-10-22T03:36:14;14.80;99.80
9519;DHT22;4797;50.220;8.782;2022-10-22T03:43:38;14.70;99.80
9519;DHT22;4797;50.220;8.782;2022-10-22T03:46:07;14.60;99.80
9519;DHT22;4797;50.220;8.782;2022-10-22T03:53:35;14.60;99.80
9519;DHT22;4797;50.220;8.782;2022-10-22T03:56:07;14.50;99.80
9519;DHT22;4797;50.220;8.782;2022-10-22T04:01:04;14.50;99.80
9519;DHT22;4797;50.220;8.782;2022-10-22T04:06:01;14.40;99.80
9519;DHT22;4797;50.220;8.782;2022-10-22T04:10:58;14.40;99.80
9519;DHT22;4797;50.220;8.782;2022-10-22T04:13:26;14.30;99.80
9519;DHT22;4797;50.220;8.782;2022-10-22T04:20:51;14.30;99.80
9519;DHT22;4797;50.220;8.782;2022-10-22T04:28:16;14.30;99.80
9519;DHT22;4797;50.220;8.782;2022-10-22T04:45:35;14.30;99.80
9519;DHT22;4797;50.220;8.782;2022-10-22T04:48:05;14.30;99.80
9519;DHT22;4797;50.220;8.782;2022-10-22T04:50:34;14.30;99.80
9519;DHT22;4797;50.220;8.782;2022-10-22T05:02:56;14.30;99.80
9519;DHT22;4797;50.220;8.782;2022-10-22T05:20:14;14.00;99.80
9519;DHT22;4797;50.220;8.782;2022-10-22T05:30:07;14.10;99.80
9519;DHT22;4797;50.220;8.782;2022-10-22T05:35:04;14.00;99.80
9519;DHT22;4797;50.220;8.782;2022-10-22T05:37:33;14.00;99.80
9519;DHT22;4797;50.220;8.782;2022-10-22T05:52:39;13.90;99.80
9519;DHT22;4797;50.220;8.782;2022-10-22T05:55:07;13.90;99.80
9519;DHT22;4797;50.220;8.782;2022-10-22T06:00:04;14.00;99.80
9519;DHT22;4797;50.220;8.782;2022-10-22T06:09:58;14.20;99.80
9519;DHT22;4797;50.220;8.782;2022-10-22T06:14:54;14.30;99.80
9519;DHT22;4797;50.220;8.782;2022-10-22T06:19:50;14.30;99.80
9519;DHT22;4797;50.220;8.782;2022-10-22T06:27:15;14.40;99.80
9519;DHT22;4797;50.220;8.782;2022-10-22T06:37:08;14.20;99.80
9519;DHT22;4797;50.220;8.782;2022-10-22T06:39:36;14.10;99.80
9519;DHT22;4797;50.220;8.782;2022-10-22T06:44:34;14.00;99.80
9519;DHT22;4797;50.220;8.782;2022-10-22T07:01:52;14.00;99.80
9519;DHT22;4797;50.220;8.782;2022-10-22T07:11:45;14.30;99.80
9519;DHT22;4797;50.220;8.782;2022-10-22T07:14:13;14.40;99.80
9519;DHT22;4797;50.220;8.782;2022-10-22T07:19:18;14.50;99.80
9519;DHT22;4797;50.220;8.782;2022-10-22T07:31:41;14.80;99.80
9519;DHT22;4797;50.220;8.782;2022-10-22T07:36:40;14.80;99.80
9519;DHT22;4797;50.220;8.782;2022-10-22T07:41:36;14.90;99.80
9519;DHT22;4797;50.220;8.782;2022-10-22T07:46:34;14.90;99.80
9519;DHT22;4797;50.220;8.782;2022-10-22T07:53:59;15.00;99.80
9519;DHT22;4797;50.220;8.782;2022-10-22T08:11:18;15.40;99.80
9519;DHT22;4797;50.220;8.782;2022-10-22T08:13:46;15.40;99.80
9519;DHT22;4797;50.220;8.782;2022-10-22T08:16:14;15.40;99.80
9519;DHT22;4797;50.220;8.782;2022-10-22T08:21:10;15.60;99.80
9519;DHT22;4797;50.220;8.782;2022-10-22T08:23:38;15.70;99.80
9519;DHT22;4797;50.220;8.782;2022-10-22T08:28:36;15.80;99.80
9519;DHT22;4797;50.220;8.782;2022-10-22T08:31:04;15.80;99.80
9519;DHT22;4797;50.220;8.782;2022-10-22T08:33:33;15.80;99.80
9519;DHT22;4797;50.220;8.782;2022-10-22T08:36:01;15.70;99.80
9519;DHT22;4797;50.220;8.782;2022-10-22T08:38:29;15.80;99.80
9519;DHT22;4797;50.220;8.782;2022-10-22T08:41:05;15.90;99.80
9519;DHT22;4797;50.220;8.782;2022-10-22T08:46:45;15.90;99.80
9519;DHT22;4797;50.220;8.782;2022-10-22T08:49:21;15.90;99.80
9519;DHT22;4797;50.220;8.782;2022-10-22T08:51:51;16.00;99.80
9519;DHT22;4797;50.220;8.782;2022-10-22T08:54:26;16.10;99.80
9519;DHT22;4797;50.220;8.782;2022-10-22T08:57:10;16.30;99.80
9519;DHT22;4797;50.220;8.782;2022-10-22T08:59:45;16.40;99.80
9519;DHT22;4797;50.220;8.782;2022-10-22T09:02:29;16.40;99.80
9519;DHT22;4797;50.220;8.782;2022-10-22T09:05:08;16.40;99.80
9519;DHT22;4797;50.220;8.782;2022-10-22T09:07:43;16.50;99.80
9519;DHT22;4797;50.220;8.782;2022-10-22T09:10:16;16.40;99.80
9519;DHT22;4797;50.220;8.782;2022-10-22T09:12:44;16.50;99.80
9519;DHT22;4797;50.220;8.782;2022-10-22T09:15:17;16.60;99.80
9519;DHT22;4797;50.220;8.782;2022-10-22T09:17:55;16.60;99.80
9519;DHT22;4797;50.220;8.782;2022-10-22T09:20:28;16.60;99.80
9519;DHT22;4797;50.220;8.782;2022-10-22T09:23:10;16.90;99.80
9519;DHT22;4797;50.220;8.782;2022-10-22T09:25:39;16.90;99.80
9519;DHT22;4797;50.220;8.782;2022-10-22T09:28:08;16.80;99.80
9519;DHT22;4797;50.220;8.782;2022-10-22T09:30:38;16.70;99.80
9519;DHT22;4797;50.220;8.782;2022-10-22T09:33:12;16.70;99.80
9519;DHT22;4797;50.220;8.782;2022-10-22T09:35:46;16.90;99.80
9519;DHT22;4797;50.220;8.782;2022-10-22T09:38:17;17.00;99.80
9519;DHT22;4797;50.220;8.782;2022-10-22T09:40:47;17.00;99.80
9519;DHT22;4797;50.220;8.782;2022-10-22T09:43:16;16.90;99.80
9519;DHT22;4797;50.220;8.782;2022-10-22T09:45:47;16.80;99.80
9519;DHT22;4797;50.220;8.782;2022-10-22T09:48:20;16.80;99.80
9519;DHT22;4797;50.220;8.782;2022-10-22T09:50:57;16.70;99.80
9519;DHT22;4797;50.220;8.782;2022-10-22T09:53:29;16.70;99.80
9519;DHT22;4797;50.220;8.782;2022-10-22T09:55:59;17.00;99.80
9519;DHT22;4797;50.220;8.782;2022-10-22T10:00:59;17.90;99.80
9519;DHT22;4797;50.220;8.782;2022-10-22T10:03:30;18.20;99.80
9519;DHT22;4797;50.220;8.782;2022-10-22T10:06:00;18.20;99.80
9519;DHT22;4797;50.220;8.782;2022-10-22T10:08:32;18.20;99.80
9519;DHT22;4797;50.220;8.782;2022-10-22T10:11:04;18.30;99.80
9519;DHT22;4797;50.220;8.782;2022-10-22T10:13:41;18.40;99.80
9519;DHT22;4797;50.220;8.782;2022-10-22T10:16:31;18.40;99.80
9519;DHT22;4797;50.220;8.782;2022-10-22T10:19:24;18.50;99.80
9519;DHT22;4797;50.220;8.782;2022-10-22T10:22:00;18.60;99.80
9519;DHT22;4797;50.220;8.782;2022-10-22T10:24:43;18.50;99.80
9519;DHT22;4797;50.220;8.782;2022-10-22T10:27:19;18.50;99.80
9519;DHT22;4797;50.220;8.782;2022-10-22T10:29:56;18.50;99.80
9519;DHT22;4797;50.220;8.782;2022-10-22T10:32:47;18.40;99.80
9519;DHT22;4797;50.220;8.782;2022-10-22T10:35:21;18.50;99.80
9519;DHT22;4797;50.220;8.782;2022-10-22T10:38:02;18.60;99.80
9519;DHT22;4797;50.220;8.782;2022-10-22T10:40:41;18.70;99.80
9519;DHT22;4797;50.220;8.782;2022-10-22T10:43:14;18.90;99.80
9519;DHT22;4797;50.220;8.782;2022-10-22T10:45:52;19.00;99.80
9519;DHT22;4797;50.220;8.782;2022-10-22T10:48:33;19.10;99.80
9519;DHT22;4797;50.220;8.782;2022-10-22T10:51:07;19.40;99.80
9519;DHT22;4797;50.220;8.782;2022-10-22T10:53:49;19.70;99.80
9519;DHT22;4797;50.220;8.782;2022-10-22T10:56:31;20.00;99.80
9519;DHT22;4797;50.220;8.782;2022-10-22T10:59:13;21.40;99.80
9519;DHT22;4797;50.220;8.782;2022-10-22T11:09:44;31.50;78.10
9519;DHT22;4797;50.220;8.782;2022-10-22T11:12:19;30.00;82.90
9519;DHT22;4797;50.220;8.782;2022-10-22T11:14:57;30.30;79.90
9519;DHT22;4797;50.220;8.782;2022-10-22T11:17:28;31.90;76.20
9519;DHT22;4797;50.220;8.782;2022-10-22T11:20:05;32.90;72.30
9519;DHT22;4797;50.220;8.782;2022-10-22T11:22:37;34.10;70.90
9519;DHT22;4797;50.220;8.782;2022-10-22T11:25:29;36.00;66.70
9519;DHT22;4797;50.220;8.782;2022-10-22T11:28:01;37.10;64.20
9519;DHT22;4797;50.220;8.782;2022-10-22T11:30:37;37.30;62.80
9519;DHT22;4797;50.220;8.782;2022-10-22T11:33:11;36.80;63.70
9519;DHT22;4797;50.220;8.782;2022-10-22T11:35:44;36.10;63.80
9519;DHT22;4797;50.220;8.782;2022-10-22T11:38:15;35.70;63.80
9519;DHT22;4797;50.220;8.782;2022-10-22T11:40:46;36.20;64.20
9519;DHT22;4797;50.220;8.782;2022-10-22T11:43:26;36.70;63.80
9519;DHT22;4797;50.220;8.782;2022-10-22T11:46:02;38.00;60.90
9519;DHT22;4797;50.220;8.782;2022-10-22T11:48:36;38.60;59.30
9519;DHT22;4797;50.220;8.782;2022-10-22T11:51:28;39.30;57.80
9519;DHT22;4797;50.220;8.782;2022-10-22T11:53:57;38.00;58.70
9519;DHT22;4797;50.220;8.782;2022-10-22T11:56:36;36.10;61.20
9519;DHT22;4797;50.220;8.782;2022-10-22T11:59:37;34.00;65.60
9519;DHT22;4797;50.220;8.782;2022-10-22T12:02:30;34.80;64.50
9519;DHT22;4797;50.220;8.782;2022-10-22T12:08:05;37.20;60.40
9519;DHT22;4797;50.220;8.782;2022-10-22T12:11:03;37.70;58.80
9519;DHT22;4797;50.220;8.782;2022-10-22T12:13:33;38.10;58.70
9519;DHT22;4797;50.220;8.782;2022-10-22T12:16:20;34.60;63.50
9519;DHT22;4797;50.220;8.782;2022-10-22T12:19:13;33.40;66.10
9519;DHT22;4797;50.220;8.782;2022-10-22T12:21:43;34.70;64.50
9519;DHT22;4797;50.220;8.782;2022-10-22T12:24:18;33.20;65.80
9519;DHT22;4797;50.220;8.782;2022-10-22T12:26:47;31.00;70.80
9519;DHT22;4797;50.220;8.782;2022-10-22T12:29:20;32.50;70.10
9519;DHT22;4797;50.220;8.782;2022-10-22T12:31:51;34.60;65.80
9519;DHT22;4797;50.220;8.782;2022-10-22T12:34:22;34.00;65.20
9519;DHT22;4797;50.220;8.782;2022-10-22T12:36:52;31.70;69.20
9519;DHT22;4797;50.220;8.782;2022-10-22T12:39:25;30.10;73.50
9519;DHT22;4797;50.220;8.782;2022-10-22T12:41:54;28.60;77.80
9519;DHT22;4797;50.220;8.782;2022-10-22T12:46:50;25.00;85.80
9519;DHT22;4797;50.220;8.782;2022-10-22T12:49:25;23.70;91.90
9519;DHT22;4797;50.220;8.782;2022-10-22T12:52:00;22.90;93.80
9519;DHT22;4797;50.220;8.782;2022-10-22T12:54:35;22.30;96.80
9519;DHT22;4797;50.220;8.782;2022-10-22T12:59:33;21.50;99.50
9519;DHT22;4797;50.220;8.782;2022-10-22T13:02:08;21.10;99.80
9519;DHT22;4797;50.220;8.782;2022-10-22T13:07:17;20.70;99.80
9519;DHT22;4797;50.220;8.782;2022-10-22T13:09:56;20.60;99.80
9519;DHT22;4797;50.220;8.782;2022-10-22T13:12:25;20.60;99.80
9519;DHT22;4797;50.220;8.782;2022-10-22T13:17:37;20.60;99.80
9519;DHT22;4797;50.220;8.782;2022-10-22T13:20:16;20.50;99.80
9519;DHT22;4797;50.220;8.782;2022-10-22T13:22:56;20.30;99.80
9519;DHT22;4797;50.220;8.782;2022-10-22T13:25:28;20.20;99.80
9519;DHT22;4797;50.220;8.782;2022-10-22T13:27:58;20.10;99.80
9519;DHT22;4797;50.220;8.782;2022-10-22T13:30:31;20.00;99.80
9519;DHT22;4797;50.220;8.782;2022-10-22T13:33:01;20.00;99.80
9519;DHT22;4797;50.220;8.782;2022-10-22T13:35:34;20.00;99.80
9519;DHT22;4797;50.220;8.782;2022-10-22T13:38:04;20.00;99.80
9519;DHT22;4797;50.220;8.782;2022-10-22T13:40:39;20.00;99.80
9519;DHT22;4797;50.220;8.782;2022-10-22T13:43:10;20.10;99.80
9519;DHT22;4797;50.220;8.782;2022-10-22T13:45:43;20.10;99.80
9519;DHT22;4797;50.220;8.782;2022-10-22T13:48:18;20.20;99.80
9519;DHT22;4797;50.220;8.782;2022-10-22T14:15:41;19.90;99.80
9519;DHT22;4797;50.220;8.782;2022-10-22T14:18:17;20.00;99.80
9519;DHT22;4797;50.220;8.782;2022-10-22T14:20:50;20.00;99.80
9519;DHT22;4797;50.220;8.782;2022-10-22T14:23:20;20.00;99.80
9519;DHT22;4797;50.220;8.782;2022-10-22T14:25:48;20.00;99.80
9519;DHT22;4797;50.220;8.782;2022-10-22T14:28:16;19.90;99.80
9519;DHT22;4797;50.220;8.782;2022-10-22T14:30:49;19.70;99.80
9519;DHT22;4797;50.220;8.782;2022-10-22T14:33:20;19.60;99.80
9519;DHT22;4797;50.220;8.782;2022-10-22T14:35:57;19.40;99.80
9519;DHT22;4797;50.220;8.782;2022-10-22T14:40:53;19.30;99.80
9519;DHT22;4797;50.220;8.782;2022-10-22T14:43:25;19.30;99.80
9519;DHT22;4797;50.220;8.782;2022-10-22T14:45:54;19.50;99.80
9519;DHT22;4797;50.220;8.782;2022-10-22T14:50:50;20.90;99.80
9519;DHT22;4797;50.220;8.782;2022-10-22T15:03:14;20.10;99.80
9519;DHT22;4797;50.220;8.782;2022-10-22T15:05:43;19.70;99.80
9519;DHT22;4797;50.220;8.782;2022-10-22T15:08:13;19.40;99.80
9519;DHT22;4797;50.220;8.782;2022-10-22T15:15:39;18.90;99.80
9519;DHT22;4797;50.220;8.782;2022-10-22T15:20:36;20.60;99.80
9519;DHT22;4797;50.220;8.782;2022-10-22T15:33:04;20.00;99.80
9519;DHT22;4797;50.220;8.782;2022-10-22T15:38:01;19.30;99.80
9519;DHT22;4797;50.220;8.782;2022-10-22T15:50:24;18.20;99.80
9519;DHT22;4797;50.220;8.782;2022-10-22T15:52:52;18.00;99.80
9519;DHT22;4797;50.220;8.782;2022-10-22T15:55:22;17.80;99.80
9519;DHT22;4797;50.220;8.782;2022-10-22T15:57:53;17.70;99.80
9519;DHT22;4797;50.220;8.782;2022-10-22T16:10:22;17.40;99.80
9519;DHT22;4797;50.220;8.782;2022-10-22T16:17:50;17.20;99.80
9519;DHT22;4797;50.220;8.782;2022-10-22T16:22:48;17.10;99.80
9519;DHT22;4797;50.220;8.782;2022-10-22T16:27:50;16.90;99.80
9519;DHT22;4797;50.220;8.782;2022-10-22T16:30:21;16.80;99.80
9519;DHT22;4797;50.220;8.782;2022-10-22T16:32:59;16.70;99.80
9519;DHT22;4797;50.220;8.782;2022-10-22T16:35:31;16.60;99.80
